createdAt,value
2017-07-05T00:00:49.417Z,20.10
2017-07-05T00:03:17.659Z,19.90
2017-07-05T00:05:45.156Z,19.90
2017-07-05T00:08:12.640Z,19.80
2017-07-05T00:10:40.150Z,19.60
2017-07-05T00:13:07.627Z,19.80
2017-07-05T00:15:35.115Z,19.60
2017-07-05T00:18:02.592Z,19.60
2017-07-05T00:20:30.084Z,19.80
2017-07-05T00:22:58.323Z,19.70
2017-07-05T00:25:26.028Z,19.70
2017-07-05T00:27:53.511Z,19.70
2017-07-05T00:30:21.010Z,19.80
2017-07-05T00:32:48.486Z,19.80
2017-07-05T00:35:16.739Z,19.80
2017-07-05T00:37:44.215Z,19.70
2017-07-05T00:40:12.471Z,19.80
2017-07-05T00:42:39.952Z,19.80
2017-07-05T00:45:07.431Z,19.80
2017-07-05T00:47:34.924Z,19.70
2017-07-05T00:50:02.402Z,19.70
2017-07-05T00:52:29.898Z,19.50
2017-07-05T00:54:57.380Z,19.50
2017-07-05T00:57:24.871Z,19.50
2017-07-05T00:59:52.347Z,19.40
2017-07-05T01:02:20.613Z,19.30
2017-07-05T01:04:48.855Z,19.20
2017-07-05T01:07:16.348Z,19.20
2017-07-05T01:09:44.593Z,19.00
2017-07-05T01:12:12.116Z,19.00
2017-07-05T01:14:39.595Z,19.10
2017-07-05T01:17:07.071Z,19.00
2017-07-05T01:19:34.563Z,18.80
2017-07-05T01:22:02.034Z,18.80
2017-07-05T01:24:29.527Z,18.90
2017-07-05T01:26:57.000Z,18.90
2017-07-05T01:29:24.492Z,19.00
2017-07-05T01:31:51.979Z,19.00
2017-07-05T01:34:19.469Z,19.00
2017-07-05T01:36:46.948Z,19.00
2017-07-05T01:39:14.443Z,19.00
2017-07-05T01:41:41.919Z,19.10
2017-07-05T01:44:09.407Z,19.00
2017-07-05T01:46:36.878Z,18.90
2017-07-05T01:49:04.391Z,18.70
2017-07-05T01:51:31.891Z,18.80
2017-07-05T01:54:00.127Z,18.70
2017-07-05T01:56:27.619Z,18.70
2017-07-05T01:58:55.867Z,18.90
2017-07-05T02:01:23.360Z,18.90
2017-07-05T02:03:50.832Z,18.90
2017-07-05T02:06:18.375Z,18.60
2017-07-05T02:08:45.811Z,18.50
2017-07-05T02:11:14.068Z,18.70
2017-07-05T02:13:41.540Z,18.70
2017-07-05T02:16:09.804Z,18.80
2017-07-05T02:18:38.789Z,18.70
2017-07-05T02:21:06.263Z,18.70
2017-07-05T02:23:34.522Z,18.50
2017-07-05T02:26:01.999Z,18.40
2017-07-05T02:28:30.265Z,18.40
2017-07-05T02:30:57.744Z,18.40
2017-07-05T02:33:26.000Z,18.30
2017-07-05T02:35:53.475Z,18.30
2017-07-05T02:38:21.739Z,18.30
2017-07-05T02:40:49.986Z,18.30
2017-07-05T02:43:17.478Z,18.30
2017-07-05T02:45:45.723Z,18.30
2017-07-05T02:48:13.214Z,18.30
2017-07-05T02:50:41.463Z,18.20
2017-07-05T02:53:08.958Z,18.20
2017-07-05T02:55:36.445Z,18.20
2017-07-05T02:58:03.923Z,18.30
2017-07-05T03:00:31.423Z,18.20
2017-07-05T03:02:58.900Z,18.20
2017-07-05T03:05:26.404Z,18.20
2017-07-05T03:07:53.880Z,18.20
2017-07-05T03:10:21.382Z,18.30
2017-07-05T03:12:48.863Z,18.20
2017-07-05T03:15:16.359Z,18.10
2017-07-05T03:17:43.848Z,18.10
2017-07-05T03:20:11.346Z,18.20
2017-07-05T03:22:38.827Z,18.10
2017-07-05T03:25:06.318Z,18.00
2017-07-05T03:27:33.803Z,18.00
2017-07-05T03:30:01.301Z,18.20
2017-07-05T03:32:28.783Z,18.20
2017-07-05T03:34:56.289Z,18.20
2017-07-05T03:37:23.765Z,18.20
2017-07-05T03:39:52.010Z,18.30
2017-07-05T03:42:19.511Z,18.20
2017-07-05T03:44:46.987Z,18.30
2017-07-05T03:47:14.491Z,18.10
2017-07-05T03:49:41.968Z,18.30
2017-07-05T03:52:10.227Z,18.20
2017-07-05T03:54:38.472Z,18.40
2017-07-05T03:57:05.967Z,18.40
2017-07-05T03:59:33.442Z,18.50
2017-07-05T04:02:00.948Z,18.40
2017-07-05T04:04:28.434Z,18.40
2017-07-05T04:06:56.700Z,18.30
2017-07-05T04:09:24.183Z,18.30
2017-07-05T04:11:51.686Z,18.20
2017-07-05T04:14:19.183Z,18.00
2017-07-05T04:16:46.681Z,18.20
2017-07-05T04:19:14.163Z,18.40
2017-07-05T04:21:41.664Z,18.60
2017-07-05T04:24:09.912Z,18.70
2017-07-05T04:26:37.396Z,18.70
2017-07-05T04:29:05.658Z,18.80
2017-07-05T04:31:33.137Z,18.80
2017-07-05T04:34:00.633Z,18.80
2017-07-05T04:36:28.135Z,18.90
2017-07-05T04:38:56.395Z,19.10
2017-07-05T04:41:23.875Z,19.10
2017-07-05T04:43:51.371Z,19.20
2017-07-05T04:46:18.851Z,19.40
2017-07-05T04:48:46.348Z,19.40
2017-07-05T04:51:13.835Z,19.40
2017-07-05T04:53:41.343Z,19.40
2017-07-05T04:56:09.591Z,19.40
2017-07-05T04:58:37.089Z,19.40
2017-07-05T05:01:04.565Z,19.40
2017-07-05T05:03:32.080Z,19.50
2017-07-05T05:05:59.554Z,19.50
2017-07-05T05:08:27.807Z,19.60
2017-07-05T05:10:55.318Z,19.60
2017-07-05T05:13:22.799Z,19.60
2017-07-05T05:15:50.301Z,19.50
2017-07-05T05:18:18.554Z,19.60
2017-07-05T05:20:46.060Z,19.50
2017-07-05T05:23:13.538Z,19.60
2017-07-05T05:25:41.038Z,19.70
2017-07-05T05:28:08.514Z,19.70
2017-07-05T05:30:36.014Z,19.70
2017-07-05T05:33:03.497Z,19.70
2017-07-05T05:35:30.992Z,19.70
2017-07-05T05:37:58.471Z,19.50
2017-07-05T05:40:25.975Z,19.50
2017-07-05T05:42:53.456Z,19.60
2017-07-05T05:45:20.937Z,19.70
2017-07-05T05:47:49.663Z,19.90
2017-07-05T05:50:17.145Z,20.00
2017-07-05T05:52:44.641Z,20.20
2017-07-05T05:55:12.121Z,20.20
2017-07-05T05:57:39.623Z,20.30
2017-07-05T06:00:07.099Z,20.40
2017-07-05T06:02:34.595Z,20.20
2017-07-05T06:05:02.079Z,20.20
2017-07-05T06:07:29.581Z,20.20
2017-07-05T06:09:57.063Z,20.30
2017-07-05T06:12:24.562Z,20.30
2017-07-05T06:14:52.095Z,20.60
2017-07-05T06:17:20.334Z,22.00
2017-07-05T06:19:47.832Z,22.00
2017-07-05T06:22:15.307Z,23.10
2017-07-05T06:24:42.805Z,24.30
2017-07-05T06:27:10.283Z,25.70
2017-07-05T06:29:38.545Z,26.90
2017-07-05T06:32:06.798Z,27.20
2017-07-05T06:34:35.211Z,27.10
2017-07-05T06:37:02.810Z,27.70
2017-07-05T06:39:30.309Z,27.70
2017-07-05T06:41:57.780Z,28.30
2017-07-05T06:44:26.040Z,28.20
2017-07-05T06:46:54.279Z,27.70
2017-07-05T06:49:21.773Z,27.60
2017-07-05T06:51:50.021Z,29.40
2017-07-05T06:54:17.515Z,29.30
2017-07-05T06:56:44.996Z,29.90
2017-07-05T06:59:12.492Z,28.70
2017-07-05T07:01:39.969Z,29.00
2017-07-05T07:04:08.213Z,29.90
2017-07-05T07:06:35.710Z,29.90
2017-07-05T07:09:03.194Z,28.00
2017-07-05T07:11:30.683Z,28.80
2017-07-05T07:13:58.158Z,29.50
2017-07-05T07:16:26.423Z,31.10
2017-07-05T07:18:53.895Z,31.10
2017-07-05T07:21:21.394Z,31.50
2017-07-05T07:23:48.870Z,32.30
2017-07-05T07:26:16.380Z,32.90
2017-07-05T07:28:43.848Z,32.20
2017-07-05T07:31:11.342Z,32.30
2017-07-05T07:33:38.870Z,32.90
2017-07-05T07:36:06.322Z,32.10
2017-07-05T07:38:33.803Z,32.60
2017-07-05T07:41:01.299Z,31.70
2017-07-05T07:43:28.798Z,29.40
2017-07-05T07:45:56.279Z,29.40
2017-07-05T07:48:23.776Z,31.10
2017-07-05T07:50:51.263Z,31.50
2017-07-05T07:53:18.757Z,32.30
2017-07-05T07:55:46.240Z,33.10
2017-07-05T07:58:13.736Z,33.60
2017-07-05T08:00:41.216Z,34.50
2017-07-05T08:03:08.706Z,34.70
2017-07-05T08:05:36.183Z,35.40
2017-07-05T08:08:03.680Z,34.80
2017-07-05T08:10:31.149Z,34.00
2017-07-05T08:12:59.413Z,33.70
2017-07-05T08:15:27.653Z,33.40
2017-07-05T08:17:55.223Z,33.40
2017-07-05T08:20:22.708Z,32.50
2017-07-05T08:22:50.955Z,34.50
2017-07-05T08:25:18.443Z,34.50
2017-07-05T08:27:45.952Z,35.00
2017-07-05T08:30:13.441Z,34.60
2017-07-05T08:32:41.675Z,32.10
2017-07-05T08:35:09.165Z,32.00
2017-07-05T08:37:36.639Z,33.00
2017-07-05T08:40:04.134Z,33.00
2017-07-05T08:42:31.639Z,33.10
2017-07-05T08:44:59.895Z,34.60
2017-07-05T08:47:27.405Z,34.60
2017-07-05T08:49:54.911Z,34.40
2017-07-05T08:52:23.146Z,30.70
2017-07-05T08:54:50.613Z,30.60
2017-07-05T08:57:18.110Z,30.30
2017-07-05T08:59:45.592Z,31.40
2017-07-05T09:02:13.080Z,33.10
2017-07-05T09:04:40.615Z,31.40
2017-07-05T09:07:08.063Z,32.10
2017-07-05T09:09:35.535Z,33.70
2017-07-05T09:12:03.046Z,34.40
2017-07-05T09:14:30.557Z,33.90
2017-07-05T09:16:58.035Z,34.20
2017-07-05T09:19:26.302Z,35.70
2017-07-05T09:21:53.773Z,35.70
2017-07-05T09:24:21.282Z,36.00
2017-07-05T09:26:48.763Z,36.10
2017-07-05T09:29:16.256Z,36.10
2017-07-05T09:31:43.742Z,35.60
2017-07-05T09:34:11.234Z,35.00
2017-07-05T09:36:39.500Z,36.00
2017-07-05T09:39:07.023Z,36.00
2017-07-05T09:41:34.502Z,36.20
2017-07-05T09:44:02.023Z,36.20
2017-07-05T09:46:29.499Z,36.90
2017-07-05T09:48:56.987Z,36.90
2017-07-05T09:51:25.218Z,35.90
2017-07-05T09:53:52.711Z,35.90
2017-07-05T09:56:20.963Z,35.20
2017-07-05T09:58:48.455Z,35.20
2017-07-05T10:01:15.932Z,35.30
2017-07-05T10:03:43.410Z,34.70
2017-07-05T10:06:10.919Z,35.20
2017-07-05T10:08:38.403Z,35.80
2017-07-05T10:11:05.892Z,35.80
2017-07-05T10:13:33.370Z,34.30
2017-07-05T10:16:00.858Z,33.40
2017-07-05T10:18:28.340Z,33.40
2017-07-05T10:20:55.839Z,34.80
2017-07-05T10:23:23.312Z,35.70
2017-07-05T10:25:50.803Z,36.10
2017-07-05T10:28:18.284Z,36.00
2017-07-05T10:30:46.546Z,35.30
2017-07-05T10:33:14.162Z,35.30
2017-07-05T10:35:41.650Z,35.20
2017-07-05T10:38:09.146Z,34.20
2017-07-05T10:40:36.618Z,34.40
2017-07-05T10:43:04.106Z,33.90
2017-07-05T10:45:31.587Z,34.70
2017-07-05T10:47:59.851Z,35.40
2017-07-05T10:50:27.328Z,35.30
2017-07-05T10:52:54.811Z,35.30
2017-07-05T10:55:22.285Z,34.20
2017-07-05T10:57:49.784Z,33.60
2017-07-05T11:00:17.294Z,34.30
2017-07-05T11:02:44.806Z,35.20
2017-07-05T11:05:12.284Z,35.10
2017-07-05T11:07:39.763Z,35.10
2017-07-05T11:10:07.253Z,34.90
2017-07-05T11:12:35.547Z,34.20
2017-07-05T11:15:03.004Z,34.20
2017-07-05T11:17:30.482Z,34.80
2017-07-05T11:19:57.980Z,34.70
2017-07-05T11:22:26.222Z,34.20
2017-07-05T11:24:53.711Z,34.20
2017-07-05T11:27:21.949Z,33.70
2017-07-05T11:29:49.442Z,33.70
2017-07-05T11:32:17.692Z,33.90
2017-07-05T11:34:45.191Z,33.90
2017-07-05T11:37:12.668Z,33.40
2017-07-05T11:39:40.175Z,33.30
2017-07-05T11:42:07.644Z,32.90
2017-07-05T11:44:35.900Z,32.30
2017-07-05T11:47:04.143Z,32.80
2017-07-05T11:49:31.625Z,32.80
2017-07-05T11:51:59.114Z,32.80
2017-07-05T11:54:26.591Z,32.90
2017-07-05T11:56:54.082Z,33.20
2017-07-05T11:59:21.554Z,32.90
2017-07-05T12:01:49.831Z,32.60
2017-07-05T12:04:18.074Z,32.00
2017-07-05T12:06:45.582Z,31.90
2017-07-05T12:09:13.075Z,32.10
2017-07-05T12:11:40.575Z,32.00
2017-07-05T12:14:08.063Z,32.00
2017-07-05T12:16:35.556Z,32.50
2017-07-05T12:19:03.032Z,32.30
2017-07-05T12:21:31.293Z,32.30
2017-07-05T12:23:59.542Z,32.30
2017-07-05T12:26:27.025Z,32.30
2017-07-05T12:28:55.288Z,32.10
2017-07-05T12:31:22.766Z,32.10
2017-07-05T12:33:51.024Z,32.20
2017-07-05T12:36:19.267Z,32.20
2017-07-05T12:38:46.754Z,32.20
2017-07-05T12:41:15.039Z,33.70
2017-07-05T12:43:42.531Z,33.70
2017-07-05T12:46:10.016Z,34.10
2017-07-05T12:48:37.503Z,33.60
2017-07-05T12:51:04.979Z,33.50
2017-07-05T12:53:32.475Z,33.30
2017-07-05T12:55:59.943Z,33.80
2017-07-05T12:58:27.435Z,33.30
2017-07-05T13:00:54.907Z,32.90
2017-07-05T13:03:22.398Z,33.70
2017-07-05T13:05:49.871Z,33.30
2017-07-05T13:08:17.347Z,33.30
2017-07-05T13:10:44.847Z,32.50
2017-07-05T13:13:12.331Z,32.20
2017-07-05T13:15:40.586Z,32.90
2017-07-05T13:18:08.063Z,32.80
2017-07-05T13:20:36.329Z,33.00
2017-07-05T13:23:03.829Z,33.00
2017-07-05T13:25:31.326Z,33.00
2017-07-05T13:27:58.804Z,33.30
2017-07-05T13:30:27.067Z,33.40
2017-07-05T13:32:55.307Z,33.10
2017-07-05T13:35:22.807Z,33.10
2017-07-05T13:37:51.053Z,32.70
2017-07-05T13:40:18.538Z,32.60
2017-07-05T13:42:46.027Z,33.60
2017-07-05T13:45:13.507Z,33.70
2017-07-05T13:47:41.002Z,33.80
2017-07-05T13:50:08.479Z,33.90
2017-07-05T13:52:35.979Z,33.40
2017-07-05T13:55:03.464Z,33.30
2017-07-05T13:57:30.956Z,33.00
2017-07-05T13:59:58.441Z,32.40
2017-07-05T14:02:25.942Z,32.90
2017-07-05T14:04:53.415Z,33.10
2017-07-05T14:07:20.922Z,33.20
2017-07-05T14:09:49.167Z,33.30
2017-07-05T14:12:16.638Z,33.20
2017-07-05T14:14:44.139Z,33.20
2017-07-05T14:17:11.615Z,33.60
2017-07-05T14:19:39.108Z,33.90
2017-07-05T14:22:07.351Z,35.10
2017-07-05T14:24:34.849Z,35.00
2017-07-05T14:27:03.102Z,33.70
2017-07-05T14:29:30.587Z,33.70
2017-07-05T14:31:58.054Z,33.60
2017-07-05T14:34:25.546Z,34.10
2017-07-05T14:36:53.032Z,34.10
2017-07-05T14:39:21.315Z,33.80
2017-07-05T14:41:48.801Z,33.80
2017-07-05T14:44:16.284Z,34.70
2017-07-05T14:46:43.775Z,34.10
2017-07-05T14:49:12.019Z,35.10
2017-07-05T14:51:39.519Z,35.10
2017-07-05T14:54:06.989Z,34.90
2017-07-05T14:56:34.487Z,34.20
2017-07-05T14:59:01.959Z,33.60
2017-07-05T15:01:30.219Z,33.10
2017-07-05T15:03:57.697Z,33.10
2017-07-05T15:06:25.951Z,33.50
2017-07-05T15:08:53.480Z,33.50
2017-07-05T15:11:20.933Z,33.30
2017-07-05T15:13:48.413Z,33.10
2017-07-05T15:16:15.957Z,32.60
2017-07-05T15:18:43.444Z,32.50
2017-07-05T15:21:10.935Z,32.30
2017-07-05T15:23:38.418Z,31.60
2017-07-05T15:26:05.931Z,31.20
2017-07-05T15:28:33.414Z,31.20
2017-07-05T15:31:00.904Z,31.10
2017-07-05T15:33:29.166Z,30.90
2017-07-05T15:35:56.648Z,30.90
2017-07-05T15:38:24.908Z,30.70
2017-07-05T15:40:53.147Z,30.80
2017-07-05T15:43:20.634Z,30.80
2017-07-05T15:45:48.118Z,30.90
2017-07-05T15:48:15.613Z,30.70
2017-07-05T15:50:43.090Z,30.50
2017-07-05T15:53:10.581Z,30.40
2017-07-05T15:55:38.062Z,30.40
2017-07-05T15:58:05.563Z,30.40
2017-07-05T16:00:33.040Z,30.10
2017-07-05T16:03:00.550Z,30.30
2017-07-05T16:05:28.029Z,30.40
2017-07-05T16:07:56.263Z,30.40
2017-07-05T16:10:23.796Z,30.40
2017-07-05T16:12:51.285Z,30.10
2017-07-05T16:15:18.775Z,30.00
2017-07-05T16:17:47.013Z,30.30
2017-07-05T16:20:14.503Z,30.40
2017-07-05T16:22:42.741Z,30.30
2017-07-05T16:25:10.226Z,30.30
2017-07-05T16:27:38.472Z,30.40
2017-07-05T16:30:05.965Z,30.30
2017-07-05T16:32:33.448Z,30.30
2017-07-05T16:35:00.935Z,30.20
2017-07-05T16:37:28.415Z,30.20
2017-07-05T16:39:56.678Z,30.00
2017-07-05T16:42:24.172Z,30.00
2017-07-05T16:44:51.640Z,30.00
2017-07-05T16:47:19.138Z,30.10
2017-07-05T16:49:46.613Z,30.00
2017-07-05T16:52:14.108Z,30.00
2017-07-05T16:54:41.586Z,30.00
2017-07-05T16:57:09.071Z,30.10
2017-07-05T16:59:37.308Z,30.00
2017-07-05T17:02:05.620Z,30.00
2017-07-05T17:04:33.093Z,30.00
2017-07-05T17:07:00.591Z,29.70
2017-07-05T17:09:28.071Z,29.40
2017-07-05T17:11:55.595Z,29.20
2017-07-05T17:14:23.087Z,29.10
2017-07-05T17:16:51.323Z,28.80
2017-07-05T17:19:18.815Z,28.70
2017-07-05T17:21:47.065Z,28.60
2017-07-05T17:24:14.568Z,28.60
2017-07-05T17:26:42.061Z,28.60
2017-07-05T17:29:09.548Z,28.60
2017-07-05T17:31:37.786Z,28.80
2017-07-05T17:34:05.286Z,28.80
2017-07-05T17:36:32.768Z,28.90
2017-07-05T17:39:00.282Z,29.00
2017-07-05T17:41:28.528Z,29.20
2017-07-05T17:43:56.019Z,29.20
2017-07-05T17:46:24.267Z,29.40
2017-07-05T17:48:52.609Z,29.30
2017-07-05T17:51:20.132Z,29.10
2017-07-05T17:53:47.619Z,29.00
2017-07-05T17:56:15.123Z,28.90
2017-07-05T17:58:43.368Z,28.60
2017-07-05T18:01:10.874Z,28.60
2017-07-05T18:03:38.351Z,28.50
2017-07-05T18:06:05.848Z,28.40
2017-07-05T18:08:33.330Z,28.30
2017-07-05T18:11:00.828Z,28.20
2017-07-05T18:13:28.317Z,28.10
2017-07-05T18:15:55.817Z,28.10
2017-07-05T18:18:23.299Z,28.10
2017-07-05T18:20:50.779Z,28.00
2017-07-05T18:23:18.281Z,27.90
2017-07-05T18:25:45.763Z,27.80
2017-07-05T18:28:13.254Z,27.70
2017-07-05T18:30:41.509Z,27.80
2017-07-05T18:33:09.002Z,27.70
2017-07-05T18:35:36.479Z,27.60
2017-07-05T18:38:03.974Z,27.50
2017-07-05T18:40:31.446Z,27.50
2017-07-05T18:42:58.945Z,27.30
2017-07-05T18:45:26.423Z,27.30
2017-07-05T18:47:53.899Z,27.20
2017-07-05T18:50:21.388Z,27.20
2017-07-05T18:52:48.883Z,27.20
2017-07-05T18:55:16.379Z,27.20
2017-07-05T18:57:43.867Z,27.20
2017-07-05T19:00:11.369Z,27.00
2017-07-05T19:02:38.853Z,26.90
2017-07-05T19:05:06.348Z,26.90
2017-07-05T19:07:33.828Z,26.80
2017-07-05T19:10:01.323Z,26.80
2017-07-05T19:12:28.801Z,26.70
2017-07-05T19:14:56.307Z,26.60
2017-07-05T19:17:24.552Z,26.50
2017-07-05T19:19:52.027Z,26.50
2017-07-05T19:22:20.288Z,26.40
2017-07-05T19:24:47.769Z,26.40
2017-07-05T19:27:15.265Z,26.30
2017-07-05T19:29:42.746Z,26.20
2017-07-05T19:32:10.242Z,26.20
2017-07-05T19:34:37.724Z,26.10
2017-07-05T19:37:05.232Z,26.10
2017-07-05T19:39:33.464Z,26.00
2017-07-05T19:42:00.963Z,26.00
2017-07-05T19:44:29.211Z,25.80
2017-07-05T19:46:56.700Z,25.70
2017-07-05T19:49:24.185Z,25.60
2017-07-05T19:51:51.676Z,25.70
2017-07-05T19:54:19.148Z,25.60
2017-07-05T19:56:46.628Z,25.60
2017-07-05T19:59:14.123Z,25.60
2017-07-05T20:01:41.593Z,25.60
2017-07-05T20:04:09.086Z,25.60
2017-07-05T20:06:36.554Z,25.60
2017-07-05T20:09:04.076Z,25.60
2017-07-05T20:11:32.326Z,25.50
2017-07-05T20:13:59.824Z,25.50
2017-07-05T20:16:27.307Z,25.40
2017-07-05T20:18:54.798Z,25.30
2017-07-05T20:21:22.271Z,25.20
2017-07-05T20:23:50.547Z,25.30
2017-07-05T20:26:18.798Z,25.20
2017-07-05T20:28:46.294Z,25.20
2017-07-05T20:31:13.785Z,25.30
2017-07-05T20:33:41.267Z,25.30
2017-07-05T20:36:08.783Z,25.30
2017-07-05T20:38:36.270Z,25.20
2017-07-05T20:41:03.782Z,25.10
2017-07-05T20:43:31.264Z,25.00
2017-07-05T20:45:58.823Z,24.90
2017-07-05T20:48:26.300Z,24.90
2017-07-05T20:50:53.815Z,24.80
2017-07-05T20:53:21.294Z,24.70
2017-07-05T20:55:48.766Z,24.80
2017-07-05T20:58:17.027Z,24.70
2017-07-05T21:00:44.563Z,24.70
2017-07-05T21:03:12.097Z,24.50
2017-07-05T21:05:39.570Z,24.60
2017-07-05T21:08:07.071Z,24.50
2017-07-05T21:10:35.316Z,24.20
2017-07-05T21:13:02.807Z,24.20
2017-07-05T21:15:30.278Z,24.30
2017-07-05T21:17:57.770Z,24.20
2017-07-05T21:20:25.252Z,24.20
2017-07-05T21:22:53.511Z,24.00
2017-07-05T21:25:20.989Z,23.90
2017-07-05T21:27:49.267Z,23.90
2017-07-05T21:30:17.512Z,23.90
2017-07-05T21:32:44.987Z,23.90
2017-07-05T21:35:13.251Z,23.90
2017-07-05T21:37:41.499Z,23.90
2017-07-05T21:40:08.989Z,23.90
2017-07-05T21:42:37.232Z,23.60
2017-07-05T21:45:04.735Z,23.60
2017-07-05T21:47:32.236Z,23.60
2017-07-05T21:49:59.724Z,23.70
2017-07-05T21:52:27.962Z,23.70
2017-07-05T21:54:55.470Z,23.70
2017-07-05T21:57:22.948Z,23.60
2017-07-05T21:59:50.438Z,23.70
2017-07-05T22:02:17.911Z,23.60
2017-07-05T22:04:46.165Z,23.50
2017-07-05T22:07:13.644Z,23.50
2017-07-05T22:09:41.899Z,23.40
2017-07-05T22:12:09.367Z,23.40
2017-07-05T22:14:37.614Z,23.30
2017-07-05T22:17:05.100Z,23.30
2017-07-05T22:19:33.339Z,23.20
2017-07-05T22:22:00.830Z,23.20
2017-07-05T22:24:29.063Z,23.10
2017-07-05T22:26:56.547Z,23.10
2017-07-05T22:29:24.054Z,23.10
2017-07-05T22:31:51.559Z,23.10
2017-07-05T22:34:19.035Z,23.00
2017-07-05T22:36:46.540Z,23.10
2017-07-05T22:39:14.021Z,22.90
2017-07-05T22:41:42.289Z,22.90
2017-07-05T22:44:10.539Z,22.90
2017-07-05T22:46:38.035Z,22.80
2017-07-05T22:49:05.511Z,22.80
2017-07-05T22:51:32.992Z,22.80
2017-07-05T22:54:00.486Z,22.80
2017-07-05T22:56:28.731Z,22.80
2017-07-05T22:58:56.227Z,22.80
2017-07-05T23:01:23.707Z,22.80
2017-07-05T23:03:51.200Z,22.70
2017-07-05T23:06:18.686Z,22.60
2017-07-05T23:08:46.944Z,22.60
2017-07-05T23:11:15.202Z,22.50
2017-07-05T23:13:42.702Z,22.50
2017-07-05T23:16:10.186Z,22.50
2017-07-05T23:18:37.698Z,22.50
2017-07-05T23:21:05.187Z,22.40
2017-07-05T23:23:32.672Z,22.40
2017-07-05T23:26:00.169Z,22.30
2017-07-05T23:28:27.648Z,22.30
2017-07-05T23:30:55.152Z,22.30
2017-07-05T23:33:23.402Z,22.30
2017-07-05T23:35:50.908Z,22.20
2017-07-05T23:38:18.390Z,22.30
2017-07-05T23:40:45.893Z,22.30
2017-07-05T23:43:13.370Z,22.30
2017-07-05T23:45:40.866Z,22.20
2017-07-05T23:48:08.343Z,22.20
2017-07-05T23:50:35.848Z,22.10
2017-07-05T23:53:03.326Z,22.00
2017-07-05T23:55:30.828Z,22.00
2017-07-05T23:57:59.084Z,22.00
